TimeMDT,TemperatureF,Dew PointF,Humidity,Sea Level PressureIn,VisibilityMPH,Wind Direction,Wind SpeedMPH,Gust SpeedMPH,PrecipitationIn,Events,Conditions,WindDirDegrees,DateUTC
12:15 AM,43.0,19.0,38,29.93,10.0,NNW,4.6,-,N/A,,Clear,340,2013-03-21 06:15:00
12:35 AM,41.2,19.2,41,29.92,10.0,NNW,5.8,-,N/A,,Clear,340,2013-03-21 06:35:00
12:55 AM,42.8,19.9,40,29.92,10.0,NW,5.8,-,N/A,,Clear,320,2013-03-21 06:55:00
1:15 AM,44.8,21.0,39,29.92,10.0,WNW,3.5,-,N/A,,Clear,300,2013-03-21 07:15:00
1:35 AM,43.3,21.6,42,29.91,10.0,West,4.6,-,N/A,,Clear,280,2013-03-21 07:35:00
2:15 AM,42.6,23.5,47,29.90,10.0,WSW,8.1,-,N/A,,Clear,250,2013-03-21 08:15:00
2:35 AM,44.1,23.9,45,29.89,10.0,WSW,10.4,-,N/A,,Clear,250,2013-03-21 08:35:00
2:55 AM,45.9,25.2,44,29.89,10.0,West,5.8,-,N/A,,Clear,280,2013-03-21 08:55:00
3:15 AM,46.8,25.2,43,29.87,10.0,West,6.9,-,N/A,,Clear,270,2013-03-21 09:15:00
3:35 AM,47.8,25.7,42,29.86,10.0,West,3.5,-,N/A,,Clear,280,2013-03-21 09:35:00
3:55 AM,48.4,25.9,42,29.86,10.0,West,4.6,-,N/A,,Clear,280,2013-03-21 09:55:00
4:15 AM,46.8,25.5,43,29.84,10.0,West,3.5,-,N/A,,Clear,260,2013-03-21 10:15:00
4:35 AM,43.7,24.8,47,29.84,10.0,SW,5.8,-,N/A,,Clear,220,2013-03-21 10:35:00
4:55 AM,43.3,25.7,50,29.84,10.0,West,8.1,-,N/A,,Clear,270,2013-03-21 10:55:00
5:15 AM,47.7,25.7,42,29.83,10.0,West,12.7,-,N/A,,Clear,270,2013-03-21 11:15:00
5:35 AM,48.7,24.8,39,29.83,10.0,West,17.3,-,N/A,,Scattered Clouds,270,2013-03-21 11:35:00
5:55 AM,49.5,23.9,37,29.84,10.0,West,16.1,20.7,N/A,,Clear,270,2013-03-21 11:55:00
6:15 AM,49.3,23.5,36,29.84,10.0,West,13.8,-,N/A,,Scattered Clouds,270,2013-03-21 12:15:00
6:35 AM,48.0,23.9,39,29.84,10.0,West,12.7,-,N/A,,Clear,270,2013-03-21 12:35:00
6:55 AM,47.3,24.1,40,29.84,10.0,West,12.7,-,N/A,,Clear,270,2013-03-21 12:55:00
7:15 AM,47.3,23.9,40,29.84,10.0,West,11.5,-,N/A,,Clear,270,2013-03-21 13:15:00
7:35 AM,48.2,24.3,39,29.84,10.0,West,13.8,-,N/A,,Clear,270,2013-03-21 13:35:00
7:55 AM,48.4,24.4,39,29.84,10.0,West,13.8,-,N/A,,Clear,270,2013-03-21 13:55:00
8:15 AM,50.5,24.8,37,29.85,10.0,West,16.1,-,N/A,,Clear,270,2013-03-21 14:15:00
8:35 AM,52.9,25.5,35,29.85,10.0,West,17.3,21.9,N/A,,Mostly Cloudy,270,2013-03-21 14:35:00
8:55 AM,54.5,26.1,33,29.84,10.0,West,17.3,-,N/A,,Mostly Cloudy,280,2013-03-21 14:55:00
9:15 AM,54.9,26.4,33,29.84,10.0,West,19.6,24.2,N/A,,Scattered Clouds,280,2013-03-21 15:15:00
9:35 AM,55.0,27.3,34,29.84,10.0,WNW,20.7,28.8,N/A,,Mostly Cloudy,290,2013-03-21 15:35:00
9:55 AM,55.8,28.4,35,29.83,10.0,WNW,18.4,31.1,N/A,,Scattered Clouds,290,2013-03-21 15:55:00
10:15 AM,56.3,28.8,35,29.83,10.0,WNW,23.0,29.9,N/A,,Scattered Clouds,290,2013-03-21 16:15:00
10:35 AM,57.0,29.1,35,29.82,10.0,WNW,24.2,32.2,N/A,,Clear,300,2013-03-21 16:35:00
10:55 AM,57.7,29.1,34,29.82,10.0,WNW,27.6,34.5,N/A,,Clear,290,2013-03-21 16:55:00
11:15 AM,59.2,29.1,32,29.82,10.0,West,20.7,26.5,N/A,,Clear,280,2013-03-21 17:15:00
11:35 AM,59.9,28.2,30,29.81,10.0,WNW,23.0,33.4,N/A,,Scattered Clouds,300,2013-03-21 17:35:00
11:55 AM,59.5,28.0,30,29.81,10.0,WNW,24.2,31.1,N/A,,Mostly Cloudy,300,2013-03-21 17:55:00
12:15 PM,58.8,27.7,31,29.80,10.0,WNW,19.6,27.6,N/A,,Scattered Clouds,290,2013-03-21 18:15:00
12:35 PM,61.9,26.1,26,29.78,10.0,West,29.9,41.4,N/A,,Scattered Clouds,270,2013-03-21 18:35:00
12:55 PM,63.0,25.3,24,29.77,10.0,West,27.6,38.0,N/A,,Clear,270,2013-03-21 18:55:00
1:15 PM,64.6,23.0,21,29.76,10.0,West,27.6,39.1,N/A,,Clear,280,2013-03-21 19:15:00
1:35 PM,65.3,19.9,18,29.75,10.0,West,28.8,42.6,N/A,,Clear,270,2013-03-21 19:35:00
1:55 PM,66.4,19.4,17,29.73,10.0,WNW,23.0,35.7,N/A,,Clear,290,2013-03-21 19:55:00
2:15 PM,67.5,13.6,13,29.73,10.0,WNW,31.1,42.6,N/A,,Clear,290,2013-03-21 20:15:00
2:35 PM,67.1,12.9,12,29.72,10.0,West,31.1,39.1,N/A,,Clear,280,2013-03-21 20:35:00
2:55 PM,68.0,11.7,11,29.71,10.0,West,27.6,42.6,N/A,,Clear,280,2013-03-21 20:55:00
3:15 PM,68.4,11.3,11,29.71,10.0,West,27.6,41.4,N/A,,Clear,280,2013-03-21 21:15:00
3:35 PM,68.5,10.4,10,29.70,10.0,West,32.2,44.9,N/A,,Clear,260,2013-03-21 21:35:00
3:55 PM,69.3,8.6,9,29.70,10.0,West,28.8,34.5,N/A,,Clear,280,2013-03-21 21:55:00
4:15 PM,68.5,4.1,8,29.70,10.0,NW,31.1,41.4,N/A,,Clear,310,2013-03-21 22:15:00
4:35 PM,68.4,5.2,8,29.70,10.0,West,27.6,35.7,N/A,,Clear,280,2013-03-21 22:35:00
4:55 PM,68.5,5.4,8,29.71,10.0,West,28.8,35.7,N/A,,Clear,280,2013-03-21 22:55:00
5:15 PM,67.1,3.4,8,29.71,10.0,WNW,33.4,42.6,N/A,,Clear,300,2013-03-21 23:15:00
5:35 PM,65.8,2.8,8,29.72,10.0,WNW,29.9,42.6,N/A,,Clear,290,2013-03-21 23:35:00
5:55 PM,65.3,3.9,9,29.72,10.0,WNW,17.3,31.1,N/A,,Clear,300,2013-03-21 23:55:00
6:15 PM,64.4,5.0,10,29.73,10.0,WNW,23.0,29.9,N/A,,Clear,300,2013-03-22 00:15:00
6:35 PM,62.8,4.3,10,29.74,10.0,WNW,19.6,25.3,N/A,,Clear,300,2013-03-22 00:35:00
6:55 PM,60.4,4.8,11,29.75,10.0,NW,17.3,-,N/A,,Clear,320,2013-03-22 00:55:00
7:15 PM,58.3,4.6,12,29.76,10.0,NW,21.9,26.5,N/A,,Clear,320,2013-03-22 01:15:00
7:35 PM,56.1,5.0,13,29.77,10.0,NW,15.0,-,N/A,,Clear,320,2013-03-22 01:35:00
7:55 PM,53.4,4.5,14,29.78,10.0,NNW,10.4,-,N/A,,Clear,330,2013-03-22 01:55:00
8:15 PM,51.6,5.0,15,29.78,10.0,NNW,10.4,-,N/A,,Clear,330,2013-03-22 02:15:00
8:35 PM,48.6,4.5,17,29.79,10.0,NW,8.1,-,N/A,,Clear,320,2013-03-22 02:35:00
8:55 PM,45.0,4.5,19,29.80,10.0,NNW,5.8,-,N/A,,Clear,330,2013-03-22 02:55:00
9:15 PM,45.3,5.0,19,29.81,10.0,NW,5.8,-,N/A,,Clear,310,2013-03-22 03:15:00
9:35 PM,44.2,5.2,20,29.81,10.0,Calm,Calm,-,N/A,,Clear,0,2013-03-22 03:35:00
9:55 PM,44.2,5.5,20,29.82,10.0,Calm,Calm,-,N/A,,Clear,0,2013-03-22 03:55:00
10:15 PM,43.0,5.9,22,29.83,10.0,SSE,3.5,-,N/A,,Clear,150,2013-03-22 04:15:00
10:35 PM,40.1,6.1,24,29.83,10.0,ENE,3.5,-,N/A,,Clear,60,2013-03-22 04:35:00
10:55 PM,41.0,7.3,25,29.83,10.0,ENE,5.8,-,N/A,,Clear,60,2013-03-22 04:55:00
11:15 PM,39.6,6.8,26,29.83,10.0,East,5.8,-,N/A,,Clear,100,2013-03-22 05:15:00
11:35 PM,40.8,7.3,25,29.83,10.0,East,5.8,-,N/A,,Clear,100,2013-03-22 05:35:00
11:55 PM,42.1,7.7,24,29.83,10.0,Calm,Calm,-,N/A,,Clear,0,2013-03-22 05:55:00